Time;durP1;ratioP1;P1;durP2;ratioP2;P2;SDS_P1;SDS_P2;PMS_P1;PMS_P2;Temp;Humidity;BMP_temperature;BMP_pressure;BME280_temperature;BME280_humidity;BME280_pressure;Samples;Min_cycle;Max_cycle;Signal;HPM_P1;HPM_P2
2021/06/11 00:01:12;;;;;;;9.00;4.72;;;15.30;99.90;;;14.78;74.60;97846.16;5033566;28;20037;-70
2021/06/11 00:03:59;;;;;;;5.93;4.38;;;15.30;99.90;;;14.75;74.23;97838.50;5030214;28;20079;-70
2021/06/11 00:06:47;;;;;;;10.52;4.32;;;15.20;99.90;;;14.61;75.09;97841.88;5012223;28;20066;-70
2021/06/11 00:09:34;;;;;;;8.73;4.32;;;15.20;99.90;;;14.56;75.85;97841.28;4995529;28;20049;-70
2021/06/11 00:12:21;;;;;;;9.57;5.28;;;15.20;99.90;;;14.55;75.91;97842.19;5019801;28;20180;-70
2021/06/11 00:15:11;;;;;;;7.93;4.97;;;15.10;99.90;;;14.52;75.57;97847.56;5016729;28;20042;-70
2021/06/11 00:17:59;;;;;;;7.35;4.95;;;15.00;99.90;;;14.43;76.15;97849.72;5026762;28;20134;-70
2021/06/11 00:20:46;;;;;;;6.57;4.55;;;15.00;99.90;;;14.46;75.96;97853.09;5021081;28;20036;-70
2021/06/11 00:23:33;;;;;;;7.22;5.80;;;15.00;99.90;;;14.41;76.13;97851.59;5029227;28;20229;-70
2021/06/11 00:26:21;;;;;;;8.93;4.90;;;15.00;99.90;;;14.35;76.71;97849.31;5028366;28;20529;-70
2021/06/11 00:29:08;;;;;;;6.43;5.13;;;15.00;99.90;;;14.39;76.18;97855.19;5023766;28;20532;-70
2021/06/11 00:31:56;;;;;;;7.78;5.38;;;15.00;99.90;;;14.58;75.03;97862.94;5030518;28;20127;-70
2021/06/11 00:34:43;;;;;;;10.13;5.00;;;15.00;99.90;;;14.62;74.42;97861.84;5029743;28;20045;-70
2021/06/11 00:37:30;;;;;;;5.45;4.60;;;15.00;99.90;;;14.68;74.00;97852.81;5014668;28;20506;-70
2021/06/11 00:40:18;;;;;;;5.95;4.50;;;15.00;99.90;;;14.70;74.02;97854.44;5019032;28;20060;-70
2021/06/11 00:43:12;;;;;;;9.07;5.43;;;15.00;99.90;;;14.33;76.63;97856.38;5030728;28;20072;-70
2021/06/11 00:45:59;;;;;;;7.47;5.85;;;15.00;99.90;;;14.38;76.05;97859.59;5026414;28;20100;-70
2021/06/11 00:48:47;;;;;;;6.03;4.68;;;15.00;99.90;;;14.36;75.64;97863.22;5018985;28;20045;-70
2021/06/11 00:51:36;;;;;;;8.07;5.25;;;14.90;99.90;;;14.30;76.07;97855.69;5017807;28;20045;-70
2021/06/11 00:54:23;;;;;;;6.72;4.60;;;14.90;99.90;;;14.21;76.05;97857.88;5027826;28;20123;-70
2021/06/11 00:57:12;;;;;;;10.57;5.05;;;14.80;99.90;;;14.26;76.53;97854.19;5009514;28;20042;-70
2021/06/11 01:00:00;;;;;;;6.07;4.28;;;14.80;99.90;;;14.13;76.51;97854.81;5009434;28;20103;-70
2021/06/11 01:02:48;;;;;;;7.20;4.80;;;14.80;99.90;;;14.30;75.97;97859.16;5027340;28;20129;-70
2021/06/11 01:05:35;;;;;;;5.85;4.40;;;14.70;99.90;;;14.32;75.72;97852.09;5029059;28;20172;-70
2021/06/11 01:08:24;;;;;;;9.05;4.75;;;14.70;99.90;;;14.02;77.10;97855.38;5013412;28;20045;-70
2021/06/11 01:11:12;;;;;;;7.53;4.75;;;14.70;99.90;;;14.06;76.64;97857.84;5013267;28;20041;-70
2021/06/11 01:14:00;;;;;;;7.60;5.15;;;14.70;99.90;;;14.20;76.14;97861.41;5032032;28;20135;-70
2021/06/11 01:16:47;;;;;;;9.98;4.72;;;14.70;99.90;;;14.20;76.18;97858.78;5020164;28;20054;-70
2021/06/11 01:19:43;;;;;;;5.70;4.55;;;14.70;99.90;;;14.22;76.48;97850.88;5040343;28;20042;-70
2021/06/11 01:23:09;;;;;;;7.32;5.75;;;14.70;99.90;;;14.21;76.30;97854.44;5027245;28;20045;-70
2021/06/11 01:26:24;;;;;;;10.48;4.55;;;14.70;99.90;;;14.15;76.09;97854.75;5034084;28;20033;-70
2021/06/11 01:29:26;;;;;;;7.82;5.32;;;14.70;99.90;;;13.98;77.82;97850.41;5002526;28;20037;-70
2021/06/11 01:32:15;;;;;;;6.57;4.93;;;14.70;99.90;;;14.00;77.16;97853.78;5025107;28;20430;-70
2021/06/11 01:35:07;;;;;;;9.10;5.20;;;14.60;99.90;;;13.99;77.50;97857.31;5017941;28;20045;-70
2021/06/11 01:38:00;;;;;;;6.53;3.97;;;14.60;99.90;;;14.14;76.13;97863.50;5024000;28;20042;-70
2021/06/11 01:40:50;;;;;;;7.15;5.10;;;14.60;99.90;;;14.10;75.86;97852.38;5014430;28;20050;-70
2021/06/11 01:43:39;;;;;;;9.55;4.97;;;14.60;99.90;;;14.13;76.22;97860.03;5009862;28;20057;-70
2021/06/11 01:46:31;;;;;;;8.65;4.78;;;14.60;99.90;;;13.98;76.97;97855.63;5008917;28;20042;-70
2021/06/11 01:49:20;;;;;;;10.27;5.50;;;14.60;99.90;;;14.09;76.10;97860.28;5006241;28;20046;-70
2021/06/11 01:52:10;;;;;;;8.98;5.28;;;14.50;99.90;;;14.00;76.99;97864.22;5015416;28;20142;-70
2021/06/11 01:54:59;;;;;;;6.30;4.70;;;14.50;99.90;;;13.98;76.31;97859.09;5026584;28;20184;-70
2021/06/11 01:57:47;;;;;;;6.35;4.47;;;14.50;99.90;;;13.95;76.50;97858.41;5015424;28;20053;-70
2021/06/11 02:00:35;;;;;;;8.93;4.82;;;14.50;99.90;;;13.84;77.40;97858.94;5008418;28;20656;-70
2021/06/11 02:03:23;;;;;;;6.90;5.22;;;14.50;99.90;;;13.84;76.78;97853.72;5024435;28;20510;-70
2021/06/11 02:06:16;;;;;;;7.35;4.93;;;14.40;99.90;;;13.76;77.22;97851.50;5004080;28;20175;-70
2021/06/11 02:09:04;;;;;;;;;;;14.40;99.90;;;13.81;77.42;97853.88;5011613;28;20042;-70
2021/06/11 02:11:51;;;;;;;9.48;4.45;;;14.30;99.90;;;13.93;76.12;97852.41;5022668;28;20035;-70
2021/06/11 02:14:39;;;;;;;8.68;4.60;;;14.30;99.90;;;13.89;75.95;97850.88;5014149;28;20042;-70
2021/06/11 02:17:27;;;;;;;9.57;6.10;;;14.20;99.90;;;13.78;77.03;97848.84;5012560;28;20057;-70
2021/06/11 02:20:22;;;;;;;7.78;4.57;;;14.20;99.90;;;13.72;77.19;97852.59;5025371;28;20154;-70
2021/06/11 02:23:10;;;;;;;9.30;4.72;;;14.20;99.90;;;13.63;77.37;97850.44;5008948;28;20197;-70
2021/06/11 02:25:57;;;;;;;9.45;5.78;;;14.20;99.90;;;13.80;77.02;97853.06;5013184;28;20286;-70
2021/06/11 02:28:45;;;;;;;7.53;4.70;;;14.30;99.90;;;13.76;76.57;97853.28;5013880;28;20056;-70
2021/06/11 02:31:33;;;;;;;6.85;5.78;;;14.30;99.90;;;13.80;76.82;97847.84;5016587;28;20127;-70
2021/06/11 02:34:20;;;;;;;10.98;7.47;;;14.30;99.90;;;13.64;79.22;97846.94;5024998;28;20124;-70
2021/06/11 02:37:08;;;;;;;11.57;7.60;;;14.20;99.90;;;13.57;79.67;97846.41;5023768;28;20127;-70
2021/06/11 02:39:55;;;;;;;10.50;7.53;;;14.00;99.90;;;13.47;79.78;97858.19;5012242;28;20061;-70
2021/06/11 02:42:53;;;;;;;7.55;6.25;;;14.00;99.90;;;13.51;78.51;97853.69;5011154;28;20128;-70
2021/06/11 02:46:07;;;;;;;7.32;5.47;;;14.00;99.90;;;13.60;77.98;97850.59;5004398;28;20103;-70
2021/06/11 02:49:16;;;;;;;7.53;5.88;;;14.00;99.90;;;13.53;78.06;97851.84;5003026;28;20116;-70
2021/06/11 02:52:07;;;;;;;10.48;5.75;;;14.00;99.90;;;13.43;77.78;97859.25;5009677;28;20390;-70
2021/06/11 02:55:00;;;;;;;11.48;4.93;;;14.00;99.90;;;13.50;77.78;97851.97;5010475;28;20537;-70
2021/06/11 02:58:00;;;;;;;9.18;4.65;;;14.00;99.90;;;13.44;78.55;97858.34;4995007;28;20470;-70
2021/06/11 03:00:49;;;;;;;7.50;5.47;;;14.00;99.90;;;13.44;78.08;97852.31;5005546;28;20132;-70
2021/06/11 03:03:39;;;;;;;9.75;5.38;;;14.00;99.90;;;13.42;78.19;97854.16;5022114;28;20347;-69
2021/06/11 03:06:30;;;;;;;7.32;5.55;;;14.00;99.90;;;13.43;78.53;97854.03;5008269;28;20057;-69
2021/06/11 03:09:21;;;;;;;9.57;5.03;;;14.00;99.90;;;13.57;77.86;97843.78;5012949;28;20077;-69
2021/06/11 03:12:10;;;;;;;7.97;5.53;;;14.00;99.90;;;13.46;78.54;97856.53;5009797;28;20072;-69
2021/06/11 03:14:58;;;;;;;11.07;6.13;;;14.10;99.90;;;13.68;77.46;97852.81;5009599;28;20064;-69
2021/06/11 03:17:53;;;;;;;7.75;5.18;;;14.10;99.90;;;13.68;77.61;97850.22;5016809;28;20045;-69
2021/06/11 03:20:45;;;;;;;12.07;8.20;;;14.20;99.90;;;13.35;80.31;97859.66;5021061;28;20041;-69
2021/06/11 03:23:58;;;;;;;8.60;7.65;;;14.20;99.90;;;13.38;80.57;97859.50;5026870;28;20513;-69
2021/06/11 03:26:48;;;;;;;9.93;7.07;;;14.20;99.90;;;13.56;79.45;97864.72;4996675;28;20065;-69
2021/06/11 03:29:44;;;;;;;8.88;5.50;;;14.20;99.90;;;13.74;78.33;97863.78;5001136;28;20196;-69
2021/06/11 03:32:37;;;;;;;10.32;6.28;;;14.30;99.90;;;13.78;77.91;97859.28;5007019;28;20054;-69
2021/06/11 03:35:32;;;;;;;7.75;6.53;;;14.30;99.90;;;13.76;78.32;97859.34;5024605;28;20139;-69
2021/06/11 03:38:23;;;;;;;8.05;5.90;;;14.40;99.90;;;13.75;78.39;97862.88;5012686;28;20045;-69
2021/06/11 03:41:13;;;;;;;9.55;5.75;;;14.40;99.90;;;13.67;79.08;97865.03;5009595;28;20461;-69
2021/06/11 03:44:04;;;;;;;13.80;5.57;;;14.40;99.90;;;13.58;79.04;97863.72;5014688;28;20053;-69
2021/06/11 03:46:53;;;;;;;10.77;6.50;;;14.40;99.90;;;13.64;79.06;97869.53;5026336;28;20041;-69
2021/06/11 03:49:42;;;;;;;11.23;5.90;;;14.30;99.90;;;13.59;79.40;97870.63;5025213;28;20045;-69
2021/06/11 03:52:39;;;;;;;10.32;6.15;;;14.20;99.90;;;13.57;79.58;97859.44;5002126;28;20046;-69
2021/06/11 03:55:31;;;;;;;14.05;6.38;;;14.20;99.90;;;13.48;79.80;97859.03;5006016;28;20037;-69
2021/06/11 03:58:38;;;;;;;8.68;6.18;;;14.20;99.90;;;13.47;79.93;97863.41;5028301;28;20037;-69
2021/06/11 04:01:29;;;;;;;9.45;7.18;;;14.20;99.90;;;13.59;79.65;97859.34;5019938;28;20184;-68
2021/06/11 04:04:17;;;;;;;8.13;6.45;;;14.20;99.90;;;13.45;80.27;97859.19;5015289;28;20041;-69
2021/06/11 04:07:20;;;;;;;8.15;6.10;;;14.20;99.90;;;13.54;80.22;97861.34;5013587;28;20162;-69
2021/06/11 04:10:16;;;;;;;;;;;14.20;99.90;;;13.46;80.46;97869.56;5013854;28;20065;-69
2021/06/11 04:13:22;;;;;;;8.25;6.53;;;14.20;99.90;;;13.56;80.06;97857.72;5013698;28;19932;-69
2021/06/11 04:16:44;;;;;;;9.32;6.32;;;14.20;99.90;;;13.53;80.35;97868.31;5014551;28;20045;-69
2021/06/11 04:19:44;;;;;;;8.35;6.22;;;14.30;99.90;;;13.82;79.14;97858.16;4998927;28;20044;-69
2021/06/11 04:22:35;;;;;;;6.53;5.50;;;14.30;99.90;;;13.92;78.24;97859.41;5014737;28;20068;-69
2021/06/11 04:25:27;;;;;;;8.38;6.50;;;14.40;99.90;;;13.93;79.06;97860.22;5017573;28;20065;-69
2021/06/11 04:28:14;;;;;;;11.33;6.43;;;14.60;99.90;;;14.03;78.85;97858.84;5011908;28;20130;-69
2021/06/11 04:31:02;;;;;;;8.15;6.22;;;14.80;99.90;;;14.09;78.71;97866.34;5016871;28;20514;-69
2021/06/11 04:33:50;;;;;;;7.93;6.93;;;14.90;99.90;;;14.08;79.01;97866.44;5026031;28;20049;-69
2021/06/11 04:36:37;;;;;;;7.43;6.57;;;15.00;99.90;;;14.29;78.47;97867.06;5011767;28;20536;-69
2021/06/11 04:39:25;;;;;;;8.65;6.20;;;15.10;99.90;;;14.31;78.79;97863.47;5029044;28;20089;-69
2021/06/11 04:42:13;;;;;;;9.77;5.97;;;15.20;99.90;;;14.48;78.69;97866.94;5024728;28;20404;-71
2021/06/11 04:45:01;;;;;;;6.95;5.40;;;15.30;99.90;;;14.69;77.86;97857.09;5024567;28;20176;-71
2021/06/11 04:47:48;;;;;;;7.03;5.00;;;15.50;99.90;;;14.97;76.81;97865.13;5020683;28;20092;-69
2021/06/11 04:50:36;;;;;;;6.60;5.28;;;15.60;99.90;;;14.94;77.07;97864.44;5030046;28;20045;-68
2021/06/11 04:53:23;;;;;;;6.18;5.35;;;15.80;99.90;;;14.84;78.32;97867.56;5020524;28;20493;-71
2021/06/11 04:56:15;;;;;;;8.95;5.47;;;15.90;99.90;;;15.19;77.43;97864.78;5030682;28;20041;-70
2021/06/11 04:59:03;;;;;;;7.38;5.35;;;16.10;99.90;;;15.23;77.71;97862.81;5020082;28;20102;-71
2021/06/11 05:01:50;;;;;;;9.00;5.65;;;16.20;99.90;;;15.23;77.59;97857.56;5032152;28;20409;-70
2021/06/11 05:04:38;;;;;;;7.10;4.60;;;16.20;99.90;;;15.38;77.45;97858.50;5029949;28;20105;-70
2021/06/11 05:07:25;;;;;;;5.60;4.10;;;16.30;99.90;;;15.38;78.24;97867.16;5029506;28;20395;-71
2021/06/11 05:10:14;;;;;;;6.55;4.45;;;16.40;99.90;;;15.62;77.49;97862.31;5027358;28;20464;-71
2021/06/11 05:13:01;;;;;;;6.88;4.72;;;16.60;99.90;;;15.82;77.54;97857.69;5025993;28;20042;-71
2021/06/11 05:15:49;;;;;;;5.28;4.00;;;16.80;99.90;;;16.10;76.39;97862.09;5023336;28;20104;-70
2021/06/11 05:18:39;;;;;;;6.07;4.50;;;17.00;99.90;;;16.10;77.46;97862.97;5025240;28;20064;-71
2021/06/11 05:21:27;;;;;;;6.38;3.70;;;17.20;99.90;;;16.40;77.11;97871.63;5029742;28;20044;-71
2021/06/11 05:24:14;;;;;;;6.03;3.80;;;17.50;99.90;;;16.54;76.88;97863.78;5028084;28;20040;-71
2021/06/11 05:27:02;;;;;;;7.47;4.78;;;17.60;99.90;;;16.78;76.33;97860.56;5022518;28;20049;-71
2021/06/11 05:29:49;;;;;;;8.45;4.68;;;17.80;99.90;;;16.98;75.67;97860.16;5028231;28;20041;-71
2021/06/11 05:32:36;;;;;;;5.22;3.72;;;17.90;99.90;;;17.07;74.96;97862.19;5029257;28;20050;-71
2021/06/11 05:35:24;;;;;;;7.85;4.45;;;18.10;99.90;;;17.20;76.07;97867.50;5028376;28;20041;-71
2021/06/11 05:38:12;;;;;;;7.18;4.95;;;18.20;99.90;;;17.32;76.35;97873.72;5028492;28;20203;-70
2021/06/11 05:41:02;;;;;;;8.75;4.50;;;18.30;99.90;;;17.53;75.53;97882.81;5024676;28;20099;-71
2021/06/11 05:43:51;;;;;;;8.68;3.42;;;18.40;99.90;;;17.73;75.77;97872.78;5014747;28;20509;-71
2021/06/11 05:46:39;;;;;;;6.95;4.00;;;18.60;99.90;;;17.83;74.77;97867.78;5010420;28;20053;-71
2021/06/11 05:49:27;;;;;;;5.88;3.35;;;18.80;99.90;;;18.16;72.62;97868.09;5000657;28;20041;-71
2021/06/11 05:52:14;;;;;;;5.22;3.30;;;19.00;99.90;;;18.49;71.16;97865.88;5028219;28;20052;-71
2021/06/11 05:55:04;;;;;;;5.07;3.15;;;19.20;99.90;;;18.59;72.86;97873.00;5027870;28;20522;-71
2021/06/11 05:57:52;;;;;;;6.15;3.22;;;19.50;99.90;;;18.99;72.03;97870.16;5022392;28;20041;-71
2021/06/11 06:00:40;;;;;;;5.47;2.90;;;19.80;99.90;;;19.10;68.80;97872.03;5013385;28;20050;-71
2021/06/11 06:03:27;;;;;;;4.93;2.65;;;19.90;99.90;;;19.36;69.57;97871.91;5025525;28;20040;-71
2021/06/11 06:06:14;;;;;;;7.07;3.60;;;20.10;99.90;;;19.58;65.29;97868.53;5014941;28;20061;-71
2021/06/11 06:09:02;;;;;;;6.43;2.80;;;20.30;99.90;;;19.82;63.29;97869.38;5005396;28;20080;-71
2021/06/11 06:11:50;;;;;;;5.07;2.75;;;20.50;99.90;;;20.01;61.36;97868.78;5026667;28;20354;-71
2021/06/11 06:14:38;;;;;;;4.80;2.28;;;20.70;99.90;;;20.22;61.14;97870.75;5028780;28;20048;-71
2021/06/11 06:17:26;;;;;;;3.88;2.42;;;20.90;99.90;;;20.29;59.83;97871.94;5026823;28;20057;-71
2021/06/11 06:20:14;;;;;;;7.75;2.80;;;21.00;99.90;;;20.44;58.49;97875.19;5013534;28;20459;-71
2021/06/11 06:23:02;;;;;;;3.60;2.00;;;21.20;99.90;;;20.59;58.84;97875.81;5014726;28;20129;-71
2021/06/11 06:25:49;;;;;;;3.83;1.98;;;21.30;99.90;;;20.79;57.94;97879.50;5024486;28;20045;-71
2021/06/11 06:28:36;;;;;;;4.90;2.17;;;21.50;99.90;;;20.89;55.69;97869.88;5027532;28;20264;-68
2021/06/11 06:31:24;;;;;;;5.03;1.80;;;21.70;99.90;;;21.11;55.82;97869.00;5026635;28;20073;-70
2021/06/11 06:34:11;;;;;;;4.45;2.00;;;21.80;99.90;;;21.20;54.63;97872.72;5014888;28;20414;-69
2021/06/11 06:36:58;;;;;;;7.25;1.73;;;22.00;99.90;;;21.33;52.85;97877.84;5027001;28;20143;-69
2021/06/11 06:39:51;;;;;;;3.03;1.70;;;22.00;99.90;;;21.41;53.52;97868.31;5012257;28;20533;-69
2021/06/11 06:42:38;;;;;;;5.43;1.70;;;22.20;99.90;;;21.47;52.39;97873.13;5012563;28;20038;-70
2021/06/11 06:45:26;;;;;;;8.00;1.77;;;22.30;99.90;;;21.66;52.54;97875.06;5024454;28;20457;-69
2021/06/11 06:48:13;;;;;;;3.40;1.48;;;22.30;99.90;;;21.73;52.56;97872.75;5025536;28;20454;-69
2021/06/11 06:51:01;;;;;;;4.35;1.48;;;22.40;99.90;;;21.80;51.12;97881.00;5014677;28;20049;-69
2021/06/11 06:53:49;;;;;;;3.45;1.20;;;22.50;99.90;;;22.05;51.20;97871.84;5023490;28;20049;-69
2021/06/11 06:56:36;;;;;;;2.42;1.02;;;22.70;99.90;;;22.27;51.24;97869.06;5018895;28;20045;-69
2021/06/11 06:59:24;;;;;;;4.38;1.27;;;22.90;99.90;;;22.14;50.57;97871.06;5012292;28;20329;-69
2021/06/11 07:02:11;;;;;;;2.83;1.00;;;23.10;99.90;;;22.50;50.02;97866.25;5030658;28;20069;-69
2021/06/11 07:04:59;;;;;;;2.88;1.10;;;23.30;99.90;;;22.50;48.16;97868.91;5027979;28;20077;-69
2021/06/11 07:07:46;;;;;;;3.75;1.20;;;23.50;99.90;;;22.78;46.23;97872.63;5025284;28;20187;-69
2021/06/11 07:10:33;;;;;;;3.50;1.10;;;23.50;99.90;;;22.95;47.39;97873.78;5025402;28;20061;-70
2021/06/11 07:13:20;;;;;;;2.53;0.90;;;23.80;99.90;;;23.03;48.58;97871.31;5012219;28;20051;-70
2021/06/11 07:16:09;;;;;;;3.60;1.13;;;23.90;99.90;;;23.25;48.46;97874.69;5028383;28;20490;-70
2021/06/11 07:18:56;;;;;;;2.08;1.02;;;24.10;99.90;;;23.51;46.88;97870.50;5030924;28;20720;-70
2021/06/11 07:21:43;;;;;;;4.55;1.48;;;24.30;99.90;;;23.47;46.70;97869.16;5030912;28;20041;-70
2021/06/11 07:24:32;;;;;;;4.50;1.30;;;24.40;99.90;;;23.23;46.54;97866.06;5015696;28;20108;-70
2021/06/11 07:27:20;;;;;;;6.50;1.48;;;24.40;99.90;;;23.33;45.65;97865.09;5016339;28;20139;-70
2021/06/11 07:30:10;;;;;;;4.32;1.30;;;24.50;99.90;;;23.52;46.40;97868.72;5029889;28;20525;-70
2021/06/11 07:32:59;;;;;;;3.40;1.52;;;24.50;99.90;;;23.74;45.74;97868.47;5012719;28;20050;-70
2021/06/11 07:35:47;;;;;;;4.68;1.38;;;24.60;99.90;;;23.97;45.29;97865.47;5017137;28;20073;-70
2021/06/11 07:38:34;;;;;;;5.82;1.15;;;24.70;99.90;;;24.13;44.17;97856.94;5030174;28;20037;-70
2021/06/11 07:41:22;;;;;;;3.75;1.52;;;24.90;99.90;;;24.15;44.48;97874.41;5025761;28;20506;-70
2021/06/11 07:44:09;;;;;;;3.22;1.50;;;25.00;99.90;;;24.50;44.38;97867.59;5029211;28;20101;-70
2021/06/11 07:46:56;;;;;;;3.05;1.30;;;25.10;99.90;;;24.60;43.92;97880.81;5029768;28;20037;-70
2021/06/11 07:49:44;;;;;;;4.18;1.55;;;25.30;99.90;;;24.80;44.43;97870.94;5029052;28;20125;-70
2021/06/11 07:52:35;;;;;;;3.45;1.20;;;25.50;99.90;;;25.03;43.67;97868.72;5023269;28;20123;-70
2021/06/11 07:55:23;;;;;;;5.28;1.50;;;25.70;99.90;;;25.12;41.56;97875.78;5028458;28;20065;-70
2021/06/11 07:58:10;;;;;;;4.88;1.30;;;26.00;99.90;;;25.00;42.70;97872.50;5010098;28;20037;-70
2021/06/11 08:00:57;;;;;;;2.45;1.50;;;26.00;99.90;;;24.42;43.02;97870.94;5020938;28;20064;-70
2021/06/11 08:03:44;;;;;;;5.75;1.67;;;25.80;99.90;;;24.67;42.98;97870.44;5022892;28;20121;-70
2021/06/11 08:06:32;;;;;;;5.30;1.90;;;25.60;99.90;;;24.86;42.14;97872.16;5022173;28;20054;-70
2021/06/11 08:09:19;;;;;;;9.88;2.03;;;25.70;99.90;;;25.01;42.54;97865.38;5030158;28;20033;-70
2021/06/11 08:12:07;;;;;;;8.68;1.92;;;25.90;99.90;;;25.10;41.97;97864.47;5028167;28;20099;-70
2021/06/11 08:14:55;;;;;;;5.25;1.58;;;26.10;99.90;;;25.31;40.77;97871.34;5019836;28;20390;-70
2021/06/11 08:17:42;;;;;;;4.72;1.50;;;26.40;99.90;;;25.58;40.74;97867.78;5027965;28;20041;-70
2021/06/11 08:20:29;;;;;;;4.45;1.60;;;26.50;99.90;;;25.39;41.86;97859.00;5014472;28;20050;-70
2021/06/11 08:23:17;;;;;;;3.60;1.60;;;26.60;99.90;;;25.82;41.03;97868.00;5029759;28;20033;-70
2021/06/11 08:26:04;;;;;;;4.22;1.58;;;27.10;99.90;;;26.19;41.09;97861.63;5019699;28;20061;-70
2021/06/11 08:28:51;;;;;;;4.43;1.70;;;27.50;99.90;;;26.06;39.95;97862.03;5030646;28;20065;-70
2021/06/11 08:31:40;;;;;;;3.30;1.65;;;27.70;99.90;;;25.54;40.00;97869.91;5030881;28;20057;-71
2021/06/11 08:34:29;;;;;;;4.95;1.58;;;28.20;98.90;;;26.56;39.17;97860.50;5029205;28;20037;-70
2021/06/11 08:37:16;;;;;;;2.78;1.20;;;28.20;98.90;;;26.24;40.77;97861.97;5011457;28;20041;-70
2021/06/11 08:40:05;;;;;;;2.67;1.35;;;28.10;99.50;;;26.66;39.19;97868.38;5029849;28;20037;-70
2021/06/11 08:42:53;;;;;;;5.05;1.63;;;28.20;98.80;;;26.84;38.29;97865.63;5029451;28;20045;-70
2021/06/11 08:45:43;;;;;;;4.80;1.75;;;28.30;98.20;;;27.01;37.47;97863.84;5013573;28;20598;-70
2021/06/11 08:48:31;;;;;;;3.67;1.65;;;28.50;97.60;;;27.27;36.98;97861.91;5012604;28;20439;-70
2021/06/11 08:51:18;;;;;;;5.75;1.58;;;28.80;97.40;;;27.68;36.55;97861.13;5024398;28;20038;-70
2021/06/11 08:54:05;;;;;;;2.75;1.27;;;29.00;97.10;;;27.84;36.35;97860.31;5029685;28;20048;-70
2021/06/11 08:56:53;;;;;;;2.72;1.27;;;28.90;97.10;;;28.66;34.69;97861.00;5027706;28;20037;-71
2021/06/11 08:59:41;;;;;;;6.82;1.40;;;29.30;96.20;;;27.04;35.44;97861.69;5013864;28;20144;-71
2021/06/11 09:02:28;;;;;;;4.60;1.40;;;29.50;95.00;;;29.03;34.78;97869.34;5024353;28;20100;-71
2021/06/11 09:05:19;;;;;;;2.17;0.95;;;29.50;96.50;;;29.66;33.11;97859.44;5010813;28;20052;-71
2021/06/11 09:08:15;;;;;;;3.58;1.40;;;30.00;95.60;;;30.00;31.71;97865.16;5013035;28;20065;-69
2021/06/11 09:11:30;;;;;;;4.03;1.23;;;30.60;94.50;;;30.46;31.97;97866.91;5016763;28;20406;-71
2021/06/11 09:14:19;;;;;;;3.20;1.23;;;31.10;94.60;;;30.26;32.29;97868.44;5028694;28;20065;-71
2021/06/11 09:17:07;;;;;;;5.82;1.90;;;31.50;93.80;;;29.32;32.24;97866.03;5027691;28;20197;-71
2021/06/11 09:20:07;;;;;;;4.65;1.30;;;30.70;92.80;;;30.36;31.76;97867.19;5028376;28;20080;-71
2021/06/11 09:23:00;;;;;;;3.28;1.20;;;31.10;93.30;;;30.00;31.41;97872.38;5028141;28;20041;-71
2021/06/11 09:25:49;;;;;;;3.25;1.75;;;31.40;92.40;;;29.50;31.33;97871.09;5027879;28;20046;-71
2021/06/11 09:28:37;;;;;;;5.35;1.70;;;30.90;91.60;;;29.84;32.11;97868.00;5023785;28;20142;-71
2021/06/11 09:31:25;;;;;;;3.80;1.33;;;30.80;92.20;;;30.42;31.18;97869.09;5018125;28;20127;-69
2021/06/11 09:34:28;;;;;;;2.70;1.33;;;31.40;92.00;;;31.03;30.70;97865.38;5029901;28;20121;-70
2021/06/11 09:37:26;;;;;;;5.18;1.27;;;32.00;91.40;;;30.54;31.48;97866.81;5028179;28;20053;-71
2021/06/11 09:40:16;;;;;;;3.50;1.52;;;31.90;91.60;;;30.12;31.80;97870.06;5014895;28;20425;-71
2021/06/11 09:43:04;;;;;;;3.15;1.60;;;31.60;90.90;;;30.40;31.28;97873.00;5027289;28;20038;-71
2021/06/11 09:46:12;;;;;;;2.90;1.55;;;31.70;90.70;;;29.50;32.46;97877.25;5015447;28;20409;-71
2021/06/11 09:49:00;;;;;;;5.22;1.33;;;31.60;90.40;;;29.90;31.15;97874.47;5015884;28;20501;-71
2021/06/11 09:52:04;;;;;;;4.20;1.33;;;31.20;90.00;;;28.44;32.96;97873.25;5014966;28;20053;-71
2021/06/11 09:54:51;;;;;;;5.40;1.60;;;31.00;90.00;;;28.87;32.68;97878.25;5028561;28;20045;-71
2021/06/11 09:57:38;;;;;;;3.20;1.90;;;31.10;90.20;;;29.46;31.49;97875.94;5028703;28;20041;-71
2021/06/11 10:00:37;;;;;;;5.63;1.63;;;30.90;89.50;;;28.62;33.42;97869.53;5030405;28;20041;-71
2021/06/11 10:03:28;;;;;;;4.65;1.77;;;30.80;90.00;;;29.52;31.93;97867.22;5002480;28;20421;-71
2021/06/11 10:06:21;;;;;;;5.32;2.22;;;31.00;90.00;;;29.15;30.98;97873.31;5019534;28;20177;-71
2021/06/11 10:09:09;;;;;;;4.03;2.03;;;30.80;87.50;;;29.21;32.29;97869.09;5018330;28;20267;-71
2021/06/11 10:11:57;;;;;;;6.07;2.15;;;30.70;88.90;;;29.46;31.81;97864.41;5014765;28;20064;-71
2021/06/11 10:14:45;;;;;;;6.28;2.00;;;30.80;88.90;;;29.66;31.83;97862.09;5009579;28;20045;-71
2021/06/11 10:17:32;;;;;;;2.88;1.50;;;31.40;88.90;;;30.18;30.47;97856.78;5035172;28;20042;-71
2021/06/11 10:20:19;;;;;;;2.70;1.25;;;31.80;87.50;;;30.49;29.33;97853.13;5010742;28;20509;-71
2021/06/11 10:23:10;;;;;;;6.88;1.70;;;31.90;85.70;;;30.41;29.66;97854.06;5013153;28;20212;-71
2021/06/11 10:26:00;;;;;;;4.80;1.20;;;32.20;85.40;;;30.22;31.06;97858.09;5013210;28;20033;-71
2021/06/11 10:28:49;;;;;;;3.15;1.10;;;32.60;86.40;;;29.17;31.71;97860.59;5031673;28;20069;-71
2021/06/11 10:31:38;;;;;;;5.53;1.33;;;32.30;85.50;;;29.01;31.78;97858.81;5025890;28;20041;-71
2021/06/11 10:34:50;;;;;;;5.00;1.25;;;31.80;84.50;;;28.48;32.39;97865.72;5012913;28;20089;-71
2021/06/11 10:37:44;;;;;;;1.48;0.80;;;31.40;85.00;;;26.89;33.35;97861.47;5005947;28;20211;-71
2021/06/11 10:40:40;;;;;;;4.22;1.05;;;30.10;83.80;;;27.80;32.71;97856.28;5025488;28;20536;-70
2021/06/11 10:43:37;;;;;;;3.75;1.23;;;30.00;85.50;;;30.21;32.36;97853.75;5009818;28;20414;-70
2021/06/11 10:46:29;;;;;;;3.33;1.40;;;31.00;89.20;;;30.16;31.08;97858.81;5028873;28;20788;-70
2021/06/11 10:49:17;;;;;;;2.63;1.15;;;31.80;86.00;;;29.77;31.52;97856.34;5028422;28;20397;-70
2021/06/11 10:52:31;;;;;;;2.88;1.13;;;31.70;85.80;;;29.73;32.65;97855.06;5006925;28;20070;-70
2021/06/11 10:55:19;;;;;;;4.07;1.17;;;31.60;85.40;;;30.02;31.07;97855.13;5043662;28;20037;-70
2021/06/11 10:58:09;;;;;;;4.15;1.48;;;31.60;85.10;;;30.02;31.33;97854.28;5029000;28;20041;-70
2021/06/11 11:00:56;;;;;;;4.93;1.02;;;32.10;84.90;;;30.15;30.95;97849.16;5035369;28;20746;-70
2021/06/11 11:03:44;;;;;;;2.85;1.00;;;32.20;83.90;;;30.06;29.51;97849.38;5039601;28;20034;-70
2021/06/11 11:06:34;;;;;;;2.63;0.90;;;32.30;81.30;;;29.84;28.94;97843.91;5027828;28;20052;-70
2021/06/11 11:09:22;;;;;;;2.33;1.10;;;32.70;81.50;;;30.89;30.16;97840.28;5032111;28;20596;-70
2021/06/11 11:12:10;;;;;;;1.60;0.88;;;33.40;83.00;;;31.01;29.55;97844.13;5043003;28;20200;-70
2021/06/11 11:15:02;;;;;;;3.15;0.70;;;33.90;81.20;;;29.37;29.24;97837.72;5027531;28;20042;-70
2021/06/11 11:17:53;;;;;;;2.60;0.98;;;33.00;79.60;;;30.32;30.72;97841.78;5026919;28;20160;-70
2021/06/11 11:20:43;;;;;;;2.22;0.93;;;33.20;81.80;;;28.99;29.56;97837.63;5026822;28;20046;-70
2021/06/11 11:23:32;;;;;;;2.58;1.10;;;33.40;76.00;;;31.06;28.18;97835.50;5025346;28;20045;-70
2021/06/11 11:26:45;;;;;;;4.05;0.80;;;33.80;78.20;;;31.09;27.98;97831.63;5028250;28;20059;-70
2021/06/11 11:29:33;;;;;;;2.05;0.80;;;33.90;77.20;;;31.63;27.59;97831.97;5027395;28;20060;-70
2021/06/11 11:32:21;;;;;;;2.20;1.10;;;34.40;77.60;;;31.87;27.48;97829.91;5032984;28;20125;-70
2021/06/11 11:35:09;;;;;;;2.25;0.93;;;34.80;76.20;;;31.99;27.88;97839.09;5025541;28;20065;-69
2021/06/11 11:37:56;;;;;;;1.70;0.90;;;35.10;76.60;;;32.28;26.83;97826.50;5022657;28;20045;-70
2021/06/11 11:40:44;;;;;;;2.80;0.75;;;35.70;75.60;;;32.23;26.88;97828.94;5019887;28;20057;-70
2021/06/11 11:43:31;;;;;;;3.25;0.90;;;35.40;74.30;;;33.57;27.46;97827.56;5036224;28;20048;-70
2021/06/11 11:46:18;;;;;;;7.15;1.23;;;36.30;77.30;;;29.91;28.51;97834.16;5019086;28;20050;-70
2021/06/11 11:49:06;;;;;;;1.50;0.93;;;36.50;72.20;;;28.09;31.14;97824.59;5020768;28;20076;-70
2021/06/11 11:51:54;;;;;;;2.08;0.80;;;35.70;70.30;;;31.20;28.40;97815.88;5017028;28;20037;-70
2021/06/11 11:54:41;;;;;;;1.65;0.90;;;34.50;73.30;;;30.84;26.97;97822.09;5018981;28;20532;-69
2021/06/11 11:57:28;;;;;;;2.72;1.55;;;33.90;71.40;;;29.87;29.81;97821.31;5017868;28;20049;-70